createdAt,value
2024-04-23T00:01:35.203Z,39.70
2024-04-23T00:04:02.458Z,15.80
2024-04-23T00:06:29.639Z,12.80
2024-04-23T00:08:56.900Z,24.45
2024-04-23T00:11:24.183Z,267.42
2024-04-23T00:13:51.443Z,44.50
2024-04-23T00:16:18.771Z,31.83
2024-04-23T00:18:46.235Z,15.40
2024-04-23T00:21:13.645Z,10.88
2024-04-23T00:23:40.919Z,12.00
2024-04-23T00:26:08.222Z,13.30
2024-04-23T00:28:35.446Z,12.60
2024-04-23T00:31:02.709Z,11.25
2024-04-23T00:33:30.160Z,17.08
2024-04-23T00:35:57.482Z,12.82
2024-04-23T00:38:24.705Z,5.97
2024-04-23T00:40:52.039Z,8.07
2024-04-23T00:43:19.465Z,8.43
2024-04-23T00:45:49.535Z,13.98
2024-04-23T00:48:19.998Z,8.73
2024-04-23T00:50:48.365Z,18.85
2024-04-23T00:53:16.233Z,6.00
2024-04-23T00:55:44.336Z,16.73
2024-04-23T00:58:12.170Z,7.90
2024-04-23T01:00:39.482Z,8.68
2024-04-23T01:03:07.024Z,21.35
2024-04-23T01:05:34.424Z,10.27
2024-04-23T01:08:01.736Z,12.00
2024-04-23T01:10:29.262Z,7.15
2024-04-23T01:12:56.637Z,9.07
2024-04-23T01:15:27.440Z,7.00
2024-04-23T01:17:58.688Z,4.88
2024-04-23T01:20:26.142Z,7.40
2024-04-23T01:23:15.388Z,8.45
2024-04-23T01:25:45.517Z,7.03
2024-04-23T01:28:17.581Z,10.13
2024-04-23T01:30:46.290Z,12.88
2024-04-23T01:33:14.094Z,5.20
2024-04-23T01:35:42.369Z,9.38
2024-04-23T01:38:11.437Z,13.65
2024-04-23T01:40:42.379Z,11.98
2024-04-23T01:43:09.816Z,10.95
2024-04-23T01:45:37.688Z,6.93
2024-04-23T01:48:06.336Z,7.78
2024-04-23T01:50:33.753Z,6.82
2024-04-23T01:53:01.124Z,9.15
2024-04-23T01:55:28.658Z,3.67
2024-04-23T01:57:55.978Z,10.73
2024-04-23T02:00:25.422Z,8.65
2024-04-23T02:02:54.881Z,7.57
2024-04-23T02:05:22.696Z,8.18
2024-04-23T02:07:50.713Z,7.45
2024-04-23T02:10:20.618Z,6.30
2024-04-23T02:12:47.970Z,13.60
2024-04-23T02:15:15.321Z,6.13
2024-04-23T02:17:43.020Z,11.27
2024-04-23T02:20:11.999Z,8.23
2024-04-23T02:22:39.429Z,6.38
2024-04-23T02:25:06.819Z,6.00
2024-04-23T02:27:34.118Z,8.38
2024-04-23T02:30:02.665Z,4.45
2024-04-23T02:32:30.267Z,12.93
2024-04-23T02:34:57.841Z,5.68
2024-04-23T02:37:25.447Z,10.85
2024-04-23T02:39:52.928Z,6.28
2024-04-23T02:42:20.339Z,2.70
2024-04-23T02:44:47.794Z,10.07
2024-04-23T02:47:15.251Z,6.40
2024-04-23T02:49:42.657Z,6.82
2024-04-23T02:52:10.488Z,6.35
2024-04-23T02:54:37.848Z,10.02
2024-04-23T02:57:05.361Z,5.40
2024-04-23T02:59:32.773Z,4.68
2024-04-23T03:02:08.096Z,7.53
2024-04-23T03:04:35.561Z,1.33
2024-04-23T03:07:03.241Z,6.32
2024-04-23T03:09:30.622Z,2.72
2024-04-23T03:11:58.226Z,2.05
2024-04-23T03:14:25.647Z,1.30
2024-04-23T03:16:53.212Z,6.88
2024-04-23T03:19:20.673Z,4.00
2024-04-23T03:21:52.349Z,4.93
2024-04-23T03:24:20.017Z,9.15
2024-04-23T03:26:47.969Z,3.33
2024-04-23T03:29:15.455Z,6.88
2024-04-23T03:32:03.856Z,7.63
2024-04-23T03:34:32.478Z,7.38
2024-04-23T03:37:00.481Z,4.95
2024-04-23T03:39:28.250Z,4.25
2024-04-23T03:41:59.965Z,7.30
2024-04-23T03:44:28.442Z,10.13
2024-04-23T03:46:57.551Z,2.88
2024-04-23T03:49:25.192Z,9.02
2024-04-23T03:51:52.628Z,5.18
2024-04-23T03:54:19.916Z,6.65
2024-04-23T03:56:47.232Z,7.07
2024-04-23T03:59:17.088Z,7.30
2024-04-23T04:01:44.563Z,3.00
2024-04-23T04:04:50.700Z,6.78
2024-04-23T04:09:45.108Z,8.35
2024-04-23T04:12:12.479Z,3.45
2024-04-23T04:14:39.784Z,0.88
2024-04-23T04:17:07.209Z,4.47
2024-04-23T04:19:34.689Z,2.80
2024-04-23T04:22:02.230Z,3.70
2024-04-23T04:24:29.744Z,0.50
2024-04-23T04:26:57.254Z,3.78
2024-04-23T04:29:24.708Z,3.40
2024-04-23T04:31:52.215Z,0.65
2024-04-23T04:34:21.718Z,1.83
2024-04-23T04:36:49.391Z,4.95
2024-04-23T04:39:16.818Z,3.50
2024-04-23T04:41:44.264Z,4.75
2024-04-23T04:44:11.624Z,3.30
2024-04-23T04:46:39.169Z,1.45
2024-04-23T04:49:06.599Z,1.45
2024-04-23T04:51:33.937Z,1.67
2024-04-23T04:54:01.281Z,1.17
2024-04-23T04:56:29.511Z,5.72
2024-04-23T04:58:56.948Z,1.92
2024-04-23T05:01:24.291Z,2.38
2024-04-23T05:03:51.690Z,2.00
2024-04-23T05:06:19.030Z,5.32
2024-04-23T05:08:46.416Z,1.10
2024-04-23T05:11:13.733Z,2.25
2024-04-23T05:13:41.159Z,3.58
2024-04-23T05:16:08.687Z,4.50
2024-04-23T05:18:37.482Z,0.90
2024-04-23T05:21:08.418Z,2.60
2024-04-23T05:23:35.699Z,0.47
2024-04-23T05:26:03.007Z,1.98
2024-04-23T05:28:30.281Z,1.63
2024-04-23T05:31:15.962Z,0.70
2024-04-23T05:33:43.368Z,8.90
2024-04-23T05:36:10.685Z,2.55
2024-04-23T05:38:38.242Z,1.55
2024-04-23T05:41:05.873Z,2.13
2024-04-23T05:43:33.119Z,0.30
2024-04-23T05:46:00.395Z,6.35
2024-04-23T05:49:05.160Z,6.68
2024-04-23T05:52:30.504Z,30.90
2024-04-23T05:55:34.559Z,22.77
2024-04-23T05:58:02.458Z,23.48
2024-04-23T06:00:30.136Z,4.90
2024-04-23T06:02:57.686Z,2.30
2024-04-23T06:05:26.468Z,1.20
2024-04-23T06:07:55.425Z,44.30
2024-04-23T06:10:23.256Z,5.75
2024-04-23T06:12:51.452Z,20.52
2024-04-23T06:15:19.466Z,19.65
2024-04-23T06:17:48.802Z,32.15
2024-04-23T06:20:16.689Z,39.28
2024-04-23T06:22:50.228Z,0.40
2024-04-23T06:25:18.004Z,29.73
2024-04-23T06:27:45.351Z,9.68
2024-04-23T06:30:18.707Z,8.60
2024-04-23T06:32:46.297Z,0.80
2024-04-23T06:35:15.612Z,22.65
2024-04-23T06:37:43.328Z,2.65
2024-04-23T06:40:11.219Z,1.02
2024-04-23T06:42:39.725Z,0.43
2024-04-23T06:45:07.508Z,3.90
2024-04-23T06:47:35.491Z,0.30
2024-04-23T06:50:03.894Z,0.32
2024-04-23T06:52:31.644Z,5.22
2024-04-23T06:54:59.643Z,40.72
2024-04-23T06:57:27.702Z,1.52
2024-04-23T06:59:55.136Z,0.52
2024-04-23T07:02:22.732Z,0.60
2024-04-23T07:04:50.249Z,1.27
2024-04-23T07:07:17.746Z,0.30
2024-04-23T07:09:45.023Z,3.08
2024-04-23T07:12:12.279Z,3.45
2024-04-23T07:14:39.469Z,7.80
2024-04-23T07:17:06.823Z,4.03
2024-04-23T07:19:34.294Z,6.63
2024-04-23T07:22:01.789Z,0.73
2024-04-23T07:24:29.055Z,1.13
2024-04-23T07:26:56.410Z,0.73
2024-04-23T07:29:23.886Z,0.93
2024-04-23T07:31:51.272Z,8.60
2024-04-23T07:34:18.619Z,2.20
2024-04-23T07:36:46.978Z,8.52
2024-04-23T07:39:15.181Z,16.60
2024-04-23T07:41:42.836Z,11.43
2024-04-23T07:44:10.535Z,16.83
2024-04-23T07:46:38.259Z,23.40
2024-04-23T07:49:05.774Z,30.38
2024-04-23T07:51:34.231Z,18.08
2024-04-23T07:54:01.801Z,19.13
2024-04-23T07:56:29.250Z,30.60
2024-04-23T07:58:56.760Z,29.15
2024-04-23T08:01:24.288Z,17.50
2024-04-23T08:03:51.700Z,20.15
2024-04-23T08:06:19.066Z,28.38
2024-04-23T08:08:46.418Z,17.98
2024-04-23T08:11:14.175Z,12.55
2024-04-23T08:13:41.726Z,28.42
2024-04-23T08:16:09.149Z,36.78
2024-04-23T08:18:36.723Z,27.20
2024-04-23T08:21:07.359Z,21.13
2024-04-23T08:23:35.223Z,17.35
2024-04-23T08:26:10.900Z,24.30
2024-04-23T08:28:38.537Z,23.15
2024-04-23T08:31:06.114Z,31.13
2024-04-23T08:33:35.730Z,40.22
2024-04-23T08:36:03.222Z,35.70
2024-04-23T08:38:31.176Z,21.77
2024-04-23T08:41:01.818Z,21.20
2024-04-23T08:43:37.130Z,19.63
2024-04-23T08:46:05.272Z,23.92
2024-04-23T08:48:34.502Z,23.70
2024-04-23T08:51:04.572Z,45.22
2024-04-23T08:53:34.269Z,17.77
2024-04-23T08:56:07.365Z,31.27
2024-04-23T08:58:37.626Z,22.02
2024-04-23T09:01:06.619Z,28.83
2024-04-23T09:03:43.961Z,43.20
2024-04-23T09:06:12.014Z,37.78
2024-04-23T09:08:42.579Z,46.17
2024-04-23T09:11:10.448Z,53.67
2024-04-23T09:13:38.682Z,52.70
2024-04-23T09:16:06.377Z,50.88
2024-04-23T09:18:34.238Z,35.47
2024-04-23T09:21:04.003Z,41.50
2024-04-23T09:23:35.245Z,28.92
2024-04-23T09:26:05.172Z,33.95
2024-04-23T09:28:36.709Z,46.53
2024-04-23T09:31:04.880Z,39.05
2024-04-23T09:33:35.715Z,32.28
2024-04-23T09:36:15.177Z,46.25
2024-04-23T09:38:42.853Z,27.45
2024-04-23T09:41:11.787Z,23.40
2024-04-23T09:43:39.541Z,31.63
2024-04-23T09:46:10.077Z,49.05
2024-04-23T09:48:41.163Z,31.67
2024-04-23T09:51:10.641Z,28.67
2024-04-23T09:53:39.936Z,36.65
2024-04-23T09:56:11.313Z,42.45
2024-04-23T09:58:38.682Z,27.30
2024-04-23T10:01:06.689Z,35.03
2024-04-23T10:03:36.974Z,25.77
2024-04-23T10:06:14.180Z,25.65
2024-04-23T10:08:50.054Z,27.55
2024-04-23T10:12:08.200Z,30.30
2024-04-23T10:14:49.133Z,16.05
2024-04-23T10:17:34.092Z,23.30
2024-04-23T10:20:03.634Z,24.17
2024-04-23T10:22:31.434Z,18.83
2024-04-23T10:24:59.037Z,25.10
2024-04-23T10:27:28.138Z,20.58
2024-04-23T10:29:56.584Z,24.55
2024-04-23T10:32:25.515Z,25.38
2024-04-23T10:34:56.732Z,18.88
2024-04-23T10:37:25.772Z,13.55
2024-04-23T10:39:54.107Z,24.83
2024-04-23T10:42:21.512Z,22.83
2024-04-23T10:44:49.276Z,27.98
2024-04-23T10:47:16.717Z,16.52
2024-04-23T10:49:44.020Z,21.83
2024-04-23T10:52:11.342Z,21.15
2024-04-23T10:54:39.016Z,30.95
2024-04-23T10:57:11.177Z,29.80
2024-04-23T10:59:39.468Z,23.65
2024-04-23T11:02:12.004Z,19.92
2024-04-23T11:04:46.455Z,12.60
2024-04-23T11:07:25.772Z,16.00
2024-04-23T11:10:02.217Z,27.00
2024-04-23T11:12:31.478Z,21.45
2024-04-23T11:15:00.646Z,32.67
2024-04-23T11:17:30.229Z,19.92
2024-04-23T11:19:58.191Z,23.17
2024-04-23T11:22:39.089Z,24.10
2024-04-23T11:25:19.022Z,19.13
2024-04-23T11:27:46.609Z,15.00
2024-04-23T11:30:15.505Z,20.52
2024-04-23T11:32:43.171Z,20.70
2024-04-23T11:35:11.866Z,26.85
2024-04-23T11:37:40.339Z,16.92
2024-04-23T11:40:08.283Z,29.05
2024-04-23T11:42:35.676Z,25.67
2024-04-23T11:45:06.828Z,22.45
2024-04-23T11:47:37.384Z,20.63
2024-04-23T11:50:07.683Z,21.75
2024-04-23T11:52:36.362Z,21.05
2024-04-23T11:55:10.478Z,15.20
2024-04-23T11:57:40.273Z,22.73
2024-04-23T12:00:09.060Z,23.25
2024-04-23T12:02:36.529Z,22.48
2024-04-23T12:05:08.955Z,29.92
2024-04-23T12:07:37.081Z,24.10
2024-04-23T12:10:07.560Z,16.42
2024-04-23T12:12:38.288Z,12.15
2024-04-23T12:15:07.567Z,19.63
2024-04-23T12:17:42.178Z,20.10
2024-04-23T12:20:13.285Z,18.77
2024-04-23T12:22:46.658Z,9.82
2024-04-23T12:25:16.440Z,13.73
2024-04-23T12:27:48.164Z,12.85
2024-04-23T12:30:20.794Z,15.63
2024-04-23T12:32:51.708Z,19.13
2024-04-23T12:35:22.785Z,23.83
2024-04-23T12:37:59.001Z,21.63
2024-04-23T12:40:27.768Z,15.20
2024-04-23T12:42:58.094Z,19.50
2024-04-23T12:45:25.755Z,12.48
2024-04-23T12:47:58.197Z,11.15
2024-04-23T12:50:25.859Z,19.80
2024-04-23T12:52:53.178Z,21.75
2024-04-23T12:55:20.619Z,14.40
2024-04-23T12:57:48.153Z,17.15
2024-04-23T13:00:16.444Z,20.55
2024-04-23T13:02:43.956Z,21.13
2024-04-23T13:05:11.412Z,20.63
2024-04-23T13:07:38.861Z,15.90
2024-04-23T13:10:06.574Z,12.32
2024-04-23T13:12:34.049Z,17.60
2024-04-23T13:15:01.557Z,15.52
2024-04-23T13:17:28.979Z,13.07
2024-04-23T13:20:00.450Z,6.07
2024-04-23T13:22:29.032Z,14.60
2024-04-23T13:24:56.491Z,9.48
2024-04-23T13:27:23.830Z,10.50
2024-04-23T13:29:51.826Z,10.10
2024-04-23T13:32:21.698Z,16.40
2024-04-23T13:34:49.042Z,11.98
2024-04-23T13:37:16.432Z,11.55
2024-04-23T13:39:43.738Z,13.57
2024-04-23T13:42:11.055Z,13.25
2024-04-23T13:44:38.347Z,9.15
2024-04-23T13:47:05.996Z,11.75
2024-04-23T13:49:36.576Z,12.35
2024-04-23T13:52:04.632Z,11.65
2024-04-23T13:54:32.044Z,12.13
2024-04-23T13:56:59.363Z,14.82
2024-04-23T13:59:26.888Z,14.05
2024-04-23T14:01:54.531Z,13.75
2024-04-23T14:04:22.019Z,8.20
2024-04-23T14:06:51.778Z,12.05
2024-04-23T14:09:19.121Z,10.48
2024-04-23T14:11:47.239Z,10.63
2024-04-23T14:14:15.028Z,12.60
2024-04-23T14:16:42.523Z,16.60
2024-04-23T14:19:10.323Z,15.18
2024-04-23T14:21:37.718Z,13.90
2024-04-23T14:24:05.212Z,11.15
2024-04-23T14:26:32.577Z,6.88
2024-04-23T14:28:59.956Z,9.20
2024-04-23T14:31:27.465Z,7.85
2024-04-23T14:33:54.767Z,9.93
2024-04-23T14:36:22.080Z,13.75
2024-04-23T14:38:49.339Z,12.55
2024-04-23T14:41:16.705Z,12.95
2024-04-23T14:43:44.216Z,19.48
2024-04-23T14:46:13.569Z,5.95
2024-04-23T14:48:41.867Z,5.28
2024-04-23T14:51:10.570Z,14.48
2024-04-23T14:53:38.118Z,8.35
2024-04-23T14:56:07.375Z,9.57
2024-04-23T14:58:35.928Z,10.35
2024-04-23T15:01:11.017Z,9.70
2024-04-23T15:03:38.635Z,6.85
2024-04-23T15:06:09.750Z,14.35
2024-04-23T15:08:39.055Z,11.15
2024-04-23T15:11:08.587Z,10.57
2024-04-23T15:13:36.987Z,6.55
2024-04-23T15:16:08.702Z,12.40
2024-04-23T15:18:39.709Z,12.68
2024-04-23T15:21:12.118Z,6.85
2024-04-23T15:23:40.007Z,12.25
2024-04-23T15:26:07.955Z,10.13
2024-04-23T15:28:39.375Z,13.18
2024-04-23T15:31:08.610Z,12.90
2024-04-23T15:33:40.387Z,15.65
2024-04-23T15:36:13.067Z,13.10
2024-04-23T15:38:49.368Z,10.93
2024-04-23T15:41:18.003Z,4.88
2024-04-23T15:43:48.870Z,6.03
2024-04-23T15:46:16.306Z,16.85
2024-04-23T15:48:43.969Z,14.38
2024-04-23T15:51:11.631Z,9.90
2024-04-23T15:53:39.104Z,15.50
2024-04-23T15:56:07.514Z,10.45
2024-04-23T15:58:35.159Z,15.05
2024-04-23T16:01:07.243Z,13.45
2024-04-23T16:03:36.276Z,10.85
2024-04-23T16:06:04.820Z,7.00
2024-04-23T16:08:32.912Z,15.65
2024-04-23T16:11:10.766Z,5.90
2024-04-23T16:13:39.661Z,7.25
2024-04-23T16:16:07.208Z,7.93
2024-04-23T16:18:38.079Z,14.68
2024-04-23T16:21:12.538Z,7.78
2024-04-23T16:23:40.230Z,8.40
2024-04-23T16:26:08.563Z,13.60
2024-04-23T16:28:36.368Z,15.65
2024-04-23T16:31:04.831Z,7.82
2024-04-23T16:33:35.643Z,6.80
2024-04-23T16:36:08.329Z,8.82
2024-04-23T16:38:39.316Z,16.10
2024-04-23T16:41:10.278Z,9.23
2024-04-23T16:43:40.820Z,5.68
2024-04-23T16:46:14.727Z,4.65
2024-04-23T16:48:42.337Z,8.07
2024-04-23T16:51:13.598Z,9.00
2024-04-23T16:53:41.239Z,9.43
2024-04-23T16:56:11.690Z,7.75
2024-04-23T16:58:39.184Z,9.38
2024-04-23T17:01:10.497Z,13.48
2024-04-23T17:03:39.784Z,6.32
2024-04-23T17:06:07.779Z,5.95
2024-04-23T17:08:35.337Z,13.80
2024-04-23T17:11:04.234Z,8.15
2024-04-23T17:13:33.725Z,9.45
2024-04-23T17:16:12.767Z,10.38
2024-04-23T17:18:40.339Z,10.55
2024-04-23T17:21:14.153Z,11.70
2024-04-23T17:23:41.771Z,8.95
2024-04-23T17:26:09.252Z,6.20
2024-04-23T17:28:36.737Z,4.07
2024-04-23T17:31:05.285Z,8.73
2024-04-23T17:33:33.206Z,7.07
2024-04-23T17:36:01.330Z,9.05
2024-04-23T17:38:28.843Z,10.65
2024-04-23T17:40:56.426Z,10.30
2024-04-23T17:43:24.371Z,10.43
2024-04-23T17:45:52.065Z,12.02
2024-04-23T17:48:19.689Z,3.47
2024-04-23T17:50:47.236Z,13.35
2024-04-23T17:53:16.677Z,13.93
2024-04-23T17:55:46.132Z,17.85
2024-04-23T17:58:17.076Z,13.15
2024-04-23T18:00:44.730Z,15.88
2024-04-23T18:03:13.636Z,15.90
2024-04-23T18:05:42.936Z,11.27
2024-04-23T18:08:12.789Z,9.80
2024-04-23T18:10:43.136Z,12.10
2024-04-23T18:13:13.893Z,14.70
2024-04-23T18:15:47.032Z,11.80
2024-04-23T18:18:19.954Z,48.30
2024-04-23T18:20:49.281Z,7.57
2024-04-23T18:23:16.999Z,19.98
2024-04-23T18:25:52.537Z,18.63
2024-04-23T18:28:22.495Z,13.90
2024-04-23T18:30:53.103Z,11.57
2024-04-23T18:33:28.259Z,28.63
2024-04-23T18:35:57.702Z,21.63
2024-04-23T18:38:25.360Z,42.88
2024-04-23T18:40:53.144Z,27.60
2024-04-23T18:43:25.511Z,31.75
2024-04-23T18:45:53.174Z,33.33
2024-04-23T18:48:32.313Z,41.63
2024-04-23T18:51:06.777Z,17.70
2024-04-23T18:53:36.629Z,19.83
2024-04-23T18:56:12.092Z,21.58
2024-04-23T18:58:43.171Z,28.90
2024-04-23T19:01:21.545Z,28.23
2024-04-23T19:03:49.287Z,33.88
2024-04-23T19:06:24.594Z,24.75
2024-04-23T19:08:54.283Z,22.25
2024-04-23T19:11:27.500Z,18.30
2024-04-23T19:14:07.888Z,14.88
2024-04-23T19:16:44.690Z,15.95
2024-04-23T19:19:13.451Z,23.83
2024-04-23T19:21:41.212Z,33.15
2024-04-23T19:24:08.982Z,19.60
2024-04-23T19:26:36.562Z,32.55
2024-04-23T19:29:06.673Z,16.65
2024-04-23T19:31:34.292Z,18.10
2024-04-23T19:34:05.091Z,21.90
2024-04-23T19:36:32.845Z,16.17
2024-04-23T19:39:01.626Z,22.75
2024-04-23T19:41:31.980Z,33.33
2024-04-23T19:44:01.049Z,15.48
2024-04-23T19:46:29.540Z,18.10
2024-04-23T19:49:03.753Z,20.92
2024-04-23T19:51:37.488Z,11.27
2024-04-23T19:54:05.451Z,19.15
2024-04-23T19:56:56.252Z,16.40
2024-04-23T19:59:25.280Z,22.15
2024-04-23T20:01:53.030Z,13.85
2024-04-23T20:04:20.855Z,19.55
2024-04-23T20:06:50.671Z,21.08
2024-04-23T20:09:27.082Z,28.00
2024-04-23T20:11:54.904Z,24.15
2024-04-23T20:14:22.686Z,20.60
2024-04-23T20:16:50.313Z,24.42
2024-04-23T20:19:17.668Z,18.67
2024-04-23T20:21:45.047Z,26.30
2024-04-23T20:24:12.384Z,29.98
2024-04-23T20:26:39.737Z,25.35
2024-04-23T20:29:09.059Z,23.20
2024-04-23T20:31:36.410Z,23.30
2024-04-23T20:34:03.727Z,15.60
2024-04-23T20:36:30.964Z,18.08
2024-04-23T20:38:58.455Z,34.50
2024-04-23T20:41:25.868Z,18.52
2024-04-23T20:43:53.386Z,23.60
2024-04-23T20:46:22.840Z,27.42
2024-04-23T20:48:50.356Z,28.30
2024-04-23T20:51:17.735Z,25.08
2024-04-23T20:53:45.596Z,23.52
2024-04-23T20:56:12.997Z,22.85
2024-04-23T20:58:40.272Z,18.00
2024-04-23T21:01:09.646Z,22.67
2024-04-23T21:03:37.781Z,17.40
2024-04-23T21:06:13.055Z,26.15
2024-04-23T21:08:41.334Z,26.85
2024-04-23T21:11:16.545Z,34.63
2024-04-23T21:13:45.446Z,18.70
2024-04-23T21:16:16.327Z,21.85
2024-04-23T21:18:45.612Z,24.98
2024-04-23T21:21:14.987Z,30.77
2024-04-23T21:23:42.602Z,26.85
2024-04-23T21:26:10.384Z,13.90
2024-04-23T21:28:38.363Z,31.83
2024-04-23T21:31:05.929Z,31.65
2024-04-23T21:33:33.880Z,31.38
2024-04-23T21:36:05.399Z,35.60
2024-04-23T21:38:33.295Z,28.05
2024-04-23T21:41:07.861Z,30.27
2024-04-23T21:43:36.400Z,31.58
2024-04-23T21:46:07.322Z,19.75
2024-04-23T21:48:35.084Z,32.22
2024-04-23T21:51:10.135Z,21.58
2024-04-23T21:56:06.379Z,26.65
2024-04-23T21:58:38.402Z,29.63
2024-04-23T22:01:18.502Z,28.10
2024-04-23T22:03:47.152Z,25.40
2024-04-23T22:06:15.361Z,18.10
2024-04-23T22:08:42.703Z,44.20
2024-04-23T22:11:10.433Z,25.88
2024-04-23T22:13:37.924Z,23.27
2024-04-23T22:16:05.639Z,35.00
2024-04-23T22:18:33.013Z,36.47
2024-04-23T22:21:00.340Z,26.75
2024-04-23T22:23:27.819Z,33.33
2024-04-23T22:25:55.269Z,32.13
2024-04-23T22:28:22.536Z,36.50
2024-04-23T22:30:49.908Z,31.10
2024-04-23T22:33:17.324Z,31.67
2024-04-23T22:35:44.667Z,28.85
2024-04-23T22:38:12.128Z,29.70
2024-04-23T22:40:39.485Z,30.77
2024-04-23T22:43:06.749Z,27.48
2024-04-23T22:45:34.076Z,36.53
2024-04-23T22:48:01.618Z,33.92
2024-04-23T22:50:29.126Z,44.67
2024-04-23T22:52:56.639Z,23.95
2024-04-23T22:55:23.991Z,32.63
2024-04-23T22:57:51.316Z,35.33
2024-04-23T23:00:18.745Z,30.88
2024-04-23T23:02:46.209Z,31.13
2024-04-23T23:05:13.612Z,27.80
2024-04-23T23:07:41.524Z,36.00
2024-04-23T23:10:09.179Z,42.53
2024-04-23T23:12:36.541Z,37.40
2024-04-23T23:15:06.245Z,52.00
2024-04-23T23:17:33.729Z,59.45
2024-04-23T23:20:01.219Z,44.10
2024-04-23T23:22:28.616Z,65.65
2024-04-23T23:24:55.977Z,63.22
2024-04-23T23:27:23.280Z,41.17
2024-04-23T23:29:50.637Z,43.35
2024-04-23T23:32:18.012Z,81.88
2024-04-23T23:34:45.581Z,52.75
2024-04-23T23:37:13.011Z,84.82
2024-04-23T23:39:40.365Z,58.08
2024-04-23T23:42:07.941Z,79.72
2024-04-23T23:44:35.318Z,94.70
2024-04-23T23:47:02.718Z,91.10
2024-04-23T23:49:30.115Z,76.82
2024-04-23T23:51:57.582Z,94.47
2024-04-23T23:54:25.080Z,104.30
2024-04-23T23:56:54.801Z,93.45
2024-04-23T23:59:22.157Z,77.90
